createdAt,value
2022-09-09T00:02:25.440Z,3.53
2022-09-09T00:05:10.686Z,5.85
2022-09-09T00:07:53.242Z,6.13
2022-09-09T00:10:55.506Z,3.97
2022-09-09T00:13:28.809Z,2.38
2022-09-09T00:16:20.332Z,2.95
2022-09-09T00:19:06.329Z,6.07
2022-09-09T00:21:50.119Z,2.65
2022-09-09T00:24:28.925Z,4.20
2022-09-09T00:27:14.214Z,2.85
2022-09-09T00:29:57.223Z,3.30
2022-09-09T00:32:28.792Z,3.53
2022-09-09T00:35:16.995Z,6.70
2022-09-09T00:37:46.778Z,4.07
2022-09-09T00:40:42.093Z,3.75
2022-09-09T00:43:22.021Z,4.07
2022-09-09T00:46:12.682Z,4.47
2022-09-09T00:48:42.392Z,3.38
2022-09-09T00:51:29.547Z,3.97
2022-09-09T00:54:28.706Z,3.67
2022-09-09T00:57:25.901Z,4.72
2022-09-09T01:00:01.006Z,4.68
2022-09-09T01:02:32.633Z,6.28
2022-09-09T01:05:08.249Z,2.67
2022-09-09T01:07:35.325Z,3.63
2022-09-09T01:10:11.247Z,4.28
2022-09-09T01:12:44.739Z,5.80
2022-09-09T01:15:32.581Z,2.75
2022-09-09T01:17:59.550Z,6.95
2022-09-09T01:20:48.767Z,6.65
2022-09-09T01:23:50.309Z,4.85
2022-09-09T01:26:46.460Z,7.72
2022-09-09T01:29:19.130Z,5.20
2022-09-09T01:31:56.751Z,7.13
2022-09-09T01:34:26.670Z,6.10
2022-09-09T01:37:03.943Z,4.40
2022-09-09T01:39:31.468Z,5.63
2022-09-09T01:41:58.679Z,5.93
2022-09-09T01:44:27.788Z,7.15
2022-09-09T01:46:54.829Z,6.00
2022-09-09T01:49:21.746Z,7.88
2022-09-09T01:51:52.911Z,10.05
2022-09-09T01:54:23.116Z,8.35
2022-09-09T01:56:50.071Z,9.13
2022-09-09T01:59:38.843Z,9.15
2022-09-09T02:02:18.340Z,10.75
2022-09-09T02:04:51.486Z,4.07
2022-09-09T02:07:37.207Z,8.43
2022-09-09T02:10:20.503Z,8.40
2022-09-09T02:13:11.781Z,6.90
2022-09-09T02:15:58.824Z,12.30
2022-09-09T02:18:31.545Z,5.70
2022-09-09T02:21:00.503Z,10.90
2022-09-09T02:23:29.358Z,7.65
2022-09-09T02:25:59.086Z,10.80
2022-09-09T02:28:30.130Z,7.22
2022-09-09T02:30:59.691Z,11.27
2022-09-09T02:33:31.643Z,9.00
2022-09-09T02:36:04.573Z,12.73
2022-09-09T02:38:38.185Z,13.27
2022-09-09T02:41:05.414Z,8.63
2022-09-09T02:43:36.495Z,8.38
2022-09-09T02:46:37.626Z,15.88
2022-09-09T02:49:17.785Z,7.65
2022-09-09T02:52:03.505Z,10.13
2022-09-09T02:54:37.315Z,15.52
2022-09-09T02:57:26.959Z,8.57
2022-09-09T02:59:53.969Z,7.40
2022-09-09T03:02:20.912Z,10.70
2022-09-09T03:04:51.940Z,7.20
2022-09-09T03:07:20.127Z,12.23
2022-09-09T03:09:47.393Z,14.15
2022-09-09T03:12:14.273Z,12.25
2022-09-09T03:14:41.181Z,8.23
2022-09-09T03:17:07.992Z,12.05
2022-09-09T03:19:36.303Z,12.30
2022-09-09T03:22:05.146Z,10.20
2022-09-09T03:24:32.024Z,7.93
2022-09-09T03:26:59.120Z,15.75
2022-09-09T03:29:25.952Z,9.38
2022-09-09T03:31:52.784Z,18.27
2022-09-09T03:34:19.806Z,8.25
2022-09-09T03:36:47.257Z,13.75
2022-09-09T03:39:15.644Z,8.13
2022-09-09T03:41:42.588Z,13.75
2022-09-09T03:44:09.629Z,11.60
2022-09-09T03:46:36.682Z,13.10
2022-09-09T03:49:03.601Z,16.38
2022-09-09T03:51:31.401Z,9.98
2022-09-09T03:53:59.970Z,11.75
2022-09-09T03:56:26.854Z,12.45
2022-09-09T03:58:53.762Z,14.05
2022-09-09T04:01:20.707Z,10.55
2022-09-09T04:03:47.555Z,14.20
2022-09-09T04:06:15.756Z,12.43
2022-09-09T04:08:42.877Z,10.75
2022-09-09T04:11:10.805Z,11.48
2022-09-09T04:13:40.328Z,13.43
2022-09-09T04:16:07.843Z,13.57
2022-09-09T04:18:35.898Z,14.43
2022-09-09T04:21:04.629Z,13.50
2022-09-09T04:23:31.866Z,12.18
2022-09-09T04:26:00.049Z,11.85
2022-09-09T04:28:30.209Z,19.17
2022-09-09T04:31:00.455Z,11.05
2022-09-09T04:33:30.996Z,14.73
2022-09-09T04:35:58.030Z,11.40
2022-09-09T04:38:25.083Z,11.32
2022-09-09T04:40:52.926Z,15.13
2022-09-09T04:43:20.104Z,11.93
2022-09-09T04:45:49.634Z,11.25
2022-09-09T04:48:16.994Z,12.05
2022-09-09T04:50:43.782Z,14.77
2022-09-09T04:53:11.488Z,12.23
2022-09-09T04:55:38.987Z,14.07
2022-09-09T04:58:07.733Z,15.27
2022-09-09T05:00:37.049Z,10.25
2022-09-09T05:03:06.123Z,14.48
2022-09-09T05:05:37.132Z,11.45
2022-09-09T05:08:06.086Z,15.45
2022-09-09T05:10:34.550Z,9.07
2022-09-09T05:13:01.467Z,12.40
2022-09-09T05:15:28.666Z,10.32
2022-09-09T05:18:02.204Z,8.30
2022-09-09T05:20:29.812Z,9.73
2022-09-09T05:22:58.098Z,11.35
2022-09-09T05:25:27.084Z,11.38
2022-09-09T05:27:54.850Z,10.27
2022-09-09T05:30:23.406Z,12.52
2022-09-09T05:32:50.562Z,11.55
2022-09-09T05:35:19.066Z,12.20
2022-09-09T05:37:47.269Z,7.22
2022-09-09T05:40:14.791Z,10.63
2022-09-09T05:42:42.283Z,10.73
2022-09-09T05:45:10.439Z,11.85
2022-09-09T05:47:38.468Z,10.40
2022-09-09T05:50:06.124Z,8.98
2022-09-09T05:52:33.707Z,12.85
2022-09-09T05:55:00.828Z,18.52
2022-09-09T05:57:27.781Z,8.52
2022-09-09T05:59:54.801Z,13.27
2022-09-09T06:02:21.989Z,9.02
2022-09-09T06:04:48.986Z,13.77
2022-09-09T06:07:15.982Z,15.35
2022-09-09T06:09:42.885Z,12.02
2022-09-09T06:12:10.208Z,13.18
2022-09-09T06:14:37.969Z,9.52
2022-09-09T06:17:06.105Z,12.35
2022-09-09T06:19:33.266Z,16.45
2022-09-09T06:22:00.236Z,14.55
2022-09-09T06:24:27.606Z,12.10
2022-09-09T06:26:55.163Z,9.52
2022-09-09T06:29:22.173Z,12.93
2022-09-09T06:31:49.092Z,14.63
2022-09-09T06:34:16.325Z,8.05
2022-09-09T06:36:43.574Z,10.02
2022-09-09T06:39:14.656Z,12.52
2022-09-09T06:41:43.640Z,13.60
2022-09-09T06:44:12.878Z,11.23
2022-09-09T06:46:40.939Z,15.32
2022-09-09T06:49:09.508Z,12.65
2022-09-09T06:51:43.809Z,15.90
2022-09-09T06:54:13.251Z,16.85
2022-09-09T06:56:43.223Z,10.68
2022-09-09T06:59:11.091Z,13.68
2022-09-09T07:01:44.843Z,6.88
2022-09-09T07:04:12.500Z,10.13
2022-09-09T07:06:44.256Z,16.35
2022-09-09T07:09:13.943Z,9.48
2022-09-09T07:11:44.505Z,15.02
2022-09-09T07:14:15.065Z,13.93
2022-09-09T07:16:43.749Z,15.30
2022-09-09T07:19:11.730Z,8.95
2022-09-09T07:21:38.599Z,16.50
2022-09-09T07:24:08.495Z,11.40
2022-09-09T07:26:36.352Z,13.25
2022-09-09T07:29:03.305Z,5.38
2022-09-09T07:31:32.816Z,14.88
2022-09-09T07:34:00.934Z,16.15
2022-09-09T07:36:33.719Z,10.55
2022-09-09T07:39:10.283Z,12.45
2022-09-09T07:41:40.833Z,13.65
2022-09-09T07:44:10.489Z,23.25
2022-09-09T07:46:38.158Z,10.43
2022-09-09T07:49:05.346Z,10.02
2022-09-09T07:51:35.712Z,8.15
2022-09-09T07:54:06.716Z,9.80
2022-09-09T07:56:34.369Z,12.50
2022-09-09T07:59:02.365Z,9.63
2022-09-09T08:01:40.496Z,10.20
2022-09-09T08:04:16.527Z,12.13
2022-09-09T08:06:49.396Z,11.43
2022-09-09T08:09:17.169Z,12.60
2022-09-09T08:11:44.740Z,11.65
2022-09-09T08:14:12.838Z,12.07
2022-09-09T08:16:46.291Z,11.60
2022-09-09T08:19:13.980Z,8.52
2022-09-09T08:21:41.834Z,12.75
2022-09-09T08:24:11.536Z,11.38
2022-09-09T08:26:42.531Z,10.27
2022-09-09T08:29:11.518Z,15.48
2022-09-09T08:31:55.469Z,11.68
2022-09-09T08:34:23.000Z,11.80
2022-09-09T08:36:50.638Z,12.35
2022-09-09T08:39:19.957Z,11.18
2022-09-09T08:42:01.897Z,14.65
2022-09-09T08:45:01.465Z,11.55
2022-09-09T08:47:43.851Z,8.85
2022-09-09T08:50:29.097Z,9.50
2022-09-09T08:53:21.291Z,13.10
2022-09-09T08:55:53.926Z,9.85
2022-09-09T08:58:24.457Z,9.45
2022-09-09T09:01:09.787Z,11.00
2022-09-09T09:03:37.021Z,12.38
2022-09-09T09:06:18.934Z,6.97
2022-09-09T09:08:57.761Z,10.55
2022-09-09T09:11:24.822Z,7.80
2022-09-09T09:14:17.489Z,11.10
2022-09-09T09:16:52.000Z,8.15
2022-09-09T09:19:19.426Z,4.82
2022-09-09T09:22:02.041Z,7.72
2022-09-09T09:24:33.551Z,8.82
2022-09-09T09:27:13.991Z,10.07
2022-09-09T09:30:03.738Z,6.65
2022-09-09T09:32:35.099Z,10.45
2022-09-09T09:35:09.105Z,5.75
2022-09-09T09:37:36.569Z,6.55
2022-09-09T09:40:21.306Z,10.82
2022-09-09T09:42:57.576Z,10.35
2022-09-09T09:45:35.988Z,6.80
2022-09-09T09:48:07.473Z,9.93
2022-09-09T09:50:36.025Z,7.65
2022-09-09T09:53:07.623Z,7.28
2022-09-09T09:55:37.981Z,7.07
2022-09-09T09:58:18.436Z,7.15
2022-09-09T10:00:51.026Z,8.60
2022-09-09T10:03:31.671Z,9.45
2022-09-09T10:05:59.352Z,5.78
2022-09-09T10:08:27.883Z,7.68
2022-09-09T10:11:24.621Z,11.85
2022-09-09T10:14:11.256Z,6.28
2022-09-09T10:16:47.524Z,7.40
2022-09-09T10:19:34.705Z,6.03
2022-09-09T10:22:20.595Z,6.45
2022-09-09T10:25:07.266Z,8.70
2022-09-09T10:27:40.868Z,7.32
2022-09-09T10:30:21.451Z,4.20
2022-09-09T10:32:52.986Z,10.20
2022-09-09T10:35:31.771Z,5.35
2022-09-09T10:38:01.819Z,3.03
2022-09-09T10:40:40.024Z,4.57
2022-09-09T10:43:28.682Z,2.53
2022-09-09T10:46:13.798Z,4.53
2022-09-09T10:49:08.519Z,4.78
2022-09-09T10:52:07.870Z,2.20
2022-09-09T10:55:12.658Z,4.97
2022-09-09T10:57:49.988Z,4.18
2022-09-09T11:00:21.612Z,11.55
2022-09-09T11:02:59.816Z,5.93
2022-09-09T11:05:36.955Z,4.25
2022-09-09T11:08:16.652Z,4.75
2022-09-09T11:11:08.404Z,10.20
2022-09-09T11:13:50.128Z,7.10
2022-09-09T11:16:59.308Z,5.45
2022-09-09T11:19:39.200Z,7.32
2022-09-09T11:22:17.757Z,3.10
2022-09-09T11:24:58.093Z,11.10
2022-09-09T11:28:12.110Z,7.88
2022-09-09T11:30:56.980Z,5.97
2022-09-09T11:33:43.119Z,5.75
2022-09-09T11:36:22.082Z,4.57
2022-09-09T11:38:53.027Z,6.13
2022-09-09T11:41:22.265Z,7.75
2022-09-09T11:43:53.157Z,4.45
2022-09-09T11:46:24.108Z,3.65
2022-09-09T11:49:06.138Z,4.97
2022-09-09T11:51:34.965Z,3.88
2022-09-09T11:54:24.032Z,4.30
2022-09-09T11:56:51.097Z,6.95
2022-09-09T11:59:27.560Z,5.38
2022-09-09T12:01:58.130Z,3.60
2022-09-09T12:04:25.647Z,5.60
2022-09-09T12:06:56.256Z,3.03
2022-09-09T12:09:42.271Z,5.80
2022-09-09T12:12:24.507Z,4.30
2022-09-09T12:15:22.335Z,5.20
2022-09-09T12:17:54.532Z,5.97
2022-09-09T12:20:41.273Z,6.93
2022-09-09T12:23:33.057Z,5.55
2022-09-09T12:26:20.588Z,7.00
2022-09-09T12:29:31.807Z,3.13
2022-09-09T12:32:06.710Z,6.78
2022-09-09T12:34:39.619Z,6.75
2022-09-09T12:37:16.441Z,4.57
2022-09-09T12:39:56.313Z,4.55
2022-09-09T12:42:24.654Z,3.15
2022-09-09T12:45:04.339Z,6.90
2022-09-09T12:47:46.992Z,6.32
2022-09-09T12:50:32.411Z,5.30
2022-09-09T12:53:28.011Z,4.38
2022-09-09T12:56:04.240Z,2.95
2022-09-09T12:58:35.861Z,4.43
2022-09-09T13:01:06.180Z,5.10
2022-09-09T13:03:34.911Z,6.25
2022-09-09T13:06:29.175Z,4.72
2022-09-09T13:09:00.056Z,7.05
2022-09-09T13:11:49.187Z,7.22
2022-09-09T13:14:31.445Z,7.70
2022-09-09T13:17:01.005Z,4.70
2022-09-09T13:19:33.685Z,4.50
2022-09-09T13:22:00.661Z,5.93
2022-09-09T13:24:35.859Z,12.02
2022-09-09T13:27:24.306Z,5.72
2022-09-09T13:29:56.889Z,6.85
2022-09-09T13:32:25.867Z,6.10
2022-09-09T13:34:58.303Z,5.53
2022-09-09T13:37:38.422Z,5.85
2022-09-09T13:40:07.770Z,5.35
2022-09-09T13:42:43.615Z,3.97
2022-09-09T13:45:23.229Z,6.90
2022-09-09T13:47:53.796Z,4.97
2022-09-09T13:50:30.708Z,7.22
2022-09-09T13:53:00.162Z,6.32
2022-09-09T13:55:28.939Z,6.20
2022-09-09T13:58:01.521Z,7.20
2022-09-09T14:00:31.899Z,5.78
2022-09-09T14:02:59.058Z,5.32
2022-09-09T14:05:26.175Z,7.50
2022-09-09T14:07:53.535Z,6.60
2022-09-09T14:10:20.763Z,4.47
2022-09-09T14:12:47.842Z,3.38
2022-09-09T14:15:15.606Z,5.20
2022-09-09T14:17:43.066Z,4.30
2022-09-09T14:20:12.810Z,8.98
2022-09-09T14:22:40.427Z,5.80
2022-09-09T14:25:07.957Z,8.75
2022-09-09T14:27:35.231Z,8.65
2022-09-09T14:30:02.443Z,6.82
2022-09-09T14:32:29.802Z,6.43
2022-09-09T14:34:57.268Z,6.82
2022-09-09T14:37:24.978Z,5.28
2022-09-09T14:39:52.115Z,3.10
2022-09-09T14:42:19.944Z,6.10
2022-09-09T14:44:46.916Z,9.25
2022-09-09T14:47:14.455Z,4.72
2022-09-09T14:49:43.828Z,4.22
2022-09-09T14:52:14.783Z,9.02
2022-09-09T14:54:41.768Z,6.15
2022-09-09T14:57:08.531Z,3.60
2022-09-09T14:59:35.580Z,6.75
2022-09-09T15:02:05.426Z,4.05
2022-09-09T15:04:32.704Z,7.00
2022-09-09T15:06:59.896Z,5.40
2022-09-09T15:09:26.750Z,4.10
2022-09-09T15:11:53.587Z,4.72
2022-09-09T15:14:22.644Z,4.38
2022-09-09T15:16:52.227Z,5.63
2022-09-09T15:19:19.193Z,8.60
2022-09-09T15:21:46.047Z,4.60
2022-09-09T15:24:14.480Z,5.30
2022-09-09T15:26:41.359Z,6.50
2022-09-09T15:29:09.318Z,8.38
2022-09-09T15:31:36.837Z,6.97
2022-09-09T15:34:06.637Z,4.00
2022-09-09T15:36:35.094Z,4.57
2022-09-09T15:39:03.859Z,3.10
2022-09-09T15:41:32.767Z,2.28
2022-09-09T15:44:04.202Z,7.38
2022-09-09T15:46:38.344Z,4.57
2022-09-09T15:49:20.185Z,5.47
2022-09-09T15:51:52.989Z,4.07
2022-09-09T15:54:24.896Z,5.43
2022-09-09T15:56:58.557Z,3.28
2022-09-09T15:59:27.108Z,4.20
2022-09-09T16:01:54.199Z,5.63
2022-09-09T16:04:30.208Z,3.38
2022-09-09T16:07:02.634Z,6.82
2022-09-09T16:09:30.254Z,5.40
2022-09-09T16:11:59.961Z,6.50
2022-09-09T16:14:27.112Z,4.68
2022-09-09T16:16:54.695Z,6.50
2022-09-09T16:19:21.789Z,6.55
2022-09-09T16:21:50.549Z,7.78
2022-09-09T16:24:20.210Z,4.93
2022-09-09T16:26:53.082Z,5.70
2022-09-09T16:29:20.901Z,10.15
2022-09-09T16:31:49.865Z,3.85
2022-09-09T16:34:18.681Z,4.47
2022-09-09T16:36:45.820Z,6.18
2022-09-09T16:39:15.369Z,6.88
2022-09-09T16:41:45.020Z,4.72
2022-09-09T16:44:13.747Z,4.85
2022-09-09T16:46:42.904Z,8.32
2022-09-09T16:49:14.562Z,10.30
2022-09-09T16:51:49.669Z,6.57
2022-09-09T16:54:18.308Z,7.30
2022-09-09T16:56:47.920Z,8.32
2022-09-09T16:59:19.769Z,9.27
2022-09-09T17:01:49.619Z,5.43
2022-09-09T17:04:21.747Z,8.25
2022-09-09T17:06:50.566Z,8.10
2022-09-09T17:09:17.816Z,5.65
2022-09-09T17:11:46.591Z,10.27
2022-09-09T17:14:17.253Z,9.32
2022-09-09T17:16:44.748Z,10.70
2022-09-09T17:19:13.191Z,7.35
2022-09-09T17:22:00.011Z,9.13
2022-09-09T17:24:30.309Z,9.50
2022-09-09T17:26:58.522Z,12.10
2022-09-09T17:29:28.883Z,8.35
2022-09-09T17:31:56.190Z,9.38
2022-09-09T17:34:23.925Z,7.88
2022-09-09T17:36:51.179Z,13.27
2022-09-09T17:39:18.274Z,9.85
2022-09-09T17:41:45.462Z,12.55
2022-09-09T17:44:22.439Z,9.32
2022-09-09T17:46:50.495Z,8.57
2022-09-09T17:49:21.145Z,14.00
2022-09-09T17:51:48.641Z,10.77
2022-09-09T17:54:18.653Z,10.75
2022-09-09T17:56:46.795Z,7.03
2022-09-09T17:59:16.947Z,9.18
2022-09-09T18:01:46.731Z,8.20
2022-09-09T18:04:16.045Z,10.18
2022-09-09T18:06:46.097Z,11.45
2022-09-09T18:09:19.429Z,8.27
2022-09-09T18:11:48.590Z,6.15
2022-09-09T18:14:31.211Z,6.57
2022-09-09T18:16:59.959Z,9.50
2022-09-09T18:19:31.910Z,8.00
2022-09-09T18:22:01.931Z,10.40
2022-09-09T18:24:30.511Z,6.55
2022-09-09T18:26:57.544Z,6.50
2022-09-09T18:29:25.526Z,9.57
2022-09-09T18:31:54.544Z,6.63
2022-09-09T18:34:22.946Z,11.10
2022-09-09T18:36:56.148Z,8.15
2022-09-09T18:39:27.373Z,11.63
2022-09-09T18:41:57.484Z,7.75
2022-09-09T18:44:26.710Z,7.68
2022-09-09T18:46:54.376Z,7.50
2022-09-09T18:49:24.469Z,10.00
2022-09-09T18:51:59.544Z,12.80
2022-09-09T18:54:33.472Z,10.10
2022-09-09T18:57:01.069Z,9.52
2022-09-09T18:59:28.461Z,4.95
2022-09-09T19:01:56.343Z,9.68
2022-09-09T19:04:24.759Z,11.88
2022-09-09T19:06:58.237Z,11.32
2022-09-09T19:09:29.662Z,6.22
2022-09-09T19:12:00.113Z,9.75
2022-09-09T19:14:30.428Z,7.95
2022-09-09T19:16:57.827Z,8.68
2022-09-09T19:19:31.192Z,15.32
2022-09-09T19:21:58.735Z,5.70
2022-09-09T19:24:29.404Z,9.65
2022-09-09T19:27:01.865Z,6.30
2022-09-09T19:29:32.465Z,12.52
2022-09-09T19:34:47.121Z,9.40
2022-09-09T19:37:18.144Z,14.10
2022-09-09T19:39:46.676Z,11.18
2022-09-09T19:42:13.937Z,11.45
2022-09-09T19:44:41.451Z,7.68
2022-09-09T19:47:08.586Z,12.43
2022-09-09T19:49:37.005Z,10.23
2022-09-09T19:52:04.977Z,9.18
2022-09-09T19:54:32.455Z,10.90
2022-09-09T19:57:00.247Z,10.55
2022-09-09T19:59:27.837Z,13.23
2022-09-09T20:01:56.889Z,10.85
2022-09-09T20:04:24.143Z,12.07
2022-09-09T20:06:52.172Z,13.23
2022-09-09T20:09:19.983Z,11.52
2022-09-09T20:11:48.839Z,12.00
2022-09-09T20:14:17.247Z,7.10
2022-09-09T20:16:45.691Z,12.48
2022-09-09T20:19:13.842Z,12.68
2022-09-09T20:21:47.967Z,10.23
2022-09-09T20:24:18.518Z,11.13
2022-09-09T20:26:48.444Z,10.93
2022-09-09T20:29:18.707Z,9.77
2022-09-09T20:31:45.930Z,15.38
2022-09-09T20:34:16.369Z,10.48
2022-09-09T20:36:43.633Z,11.27
2022-09-09T20:39:12.048Z,12.75
2022-09-09T20:41:40.456Z,17.77
2022-09-09T20:44:19.297Z,7.47
2022-09-09T20:46:48.238Z,13.18
2022-09-09T20:49:17.258Z,16.27
2022-09-09T20:51:45.764Z,14.27
2022-09-09T20:54:15.933Z,13.10
2022-09-09T20:56:44.578Z,12.15
2022-09-09T20:59:14.963Z,12.57
2022-09-09T21:01:42.350Z,10.55
2022-09-09T21:04:10.057Z,16.52
2022-09-09T21:06:37.221Z,10.90
2022-09-09T21:09:04.798Z,16.05
2022-09-09T21:11:32.564Z,13.40
2022-09-09T21:13:59.748Z,14.40
2022-09-09T21:16:28.051Z,13.05
2022-09-09T21:18:55.201Z,12.43
2022-09-09T21:21:22.089Z,17.42
2022-09-09T21:23:50.301Z,13.68
2022-09-09T21:26:19.686Z,15.27
2022-09-09T21:28:46.687Z,10.30
2022-09-09T21:31:18.786Z,11.30
2022-09-09T21:33:46.375Z,12.90
2022-09-09T21:36:15.064Z,14.02
2022-09-09T21:38:42.819Z,13.00
2022-09-09T21:41:13.590Z,14.70
2022-09-09T21:43:42.098Z,10.73
2022-09-09T21:46:12.707Z,19.42
2022-09-09T21:48:39.687Z,17.40
2022-09-09T21:51:10.354Z,19.45
2022-09-09T21:53:39.756Z,13.35
2022-09-09T21:56:12.668Z,14.43
2022-09-09T21:58:41.211Z,17.17
2022-09-09T22:01:18.933Z,17.88
2022-09-09T22:03:46.660Z,13.80
2022-09-09T22:06:15.646Z,12.43
2022-09-09T22:08:43.037Z,13.95
2022-09-09T22:11:15.669Z,12.70
2022-09-09T22:13:44.728Z,10.75
2022-09-09T22:16:14.145Z,12.57
2022-09-09T22:18:41.689Z,15.88
2022-09-09T22:21:15.172Z,13.30
2022-09-09T22:23:42.502Z,17.67
2022-09-09T22:26:10.651Z,16.08
2022-09-09T22:28:38.744Z,14.70
2022-09-09T22:31:06.343Z,15.90
2022-09-09T22:33:33.923Z,14.23
2022-09-09T22:36:01.031Z,13.70
2022-09-09T22:38:28.124Z,21.13
2022-09-09T22:40:55.143Z,16.13
2022-09-09T22:43:22.982Z,18.05
2022-09-09T22:45:51.011Z,24.80
2022-09-09T22:48:18.408Z,16.17
2022-09-09T22:50:46.693Z,22.10
2022-09-09T22:53:15.599Z,16.05
2022-09-09T22:55:43.024Z,16.67
2022-09-09T22:58:10.675Z,22.02
2022-09-09T23:00:41.352Z,16.63
2022-09-09T23:03:08.824Z,17.52
2022-09-09T23:05:37.320Z,11.80
2022-09-09T23:08:04.416Z,15.38
2022-09-09T23:10:33.566Z,16.17
2022-09-09T23:13:00.626Z,17.60
2022-09-09T23:15:29.332Z,16.42
2022-09-09T23:17:56.318Z,19.13
2022-09-09T23:20:24.262Z,11.20
2022-09-09T23:22:51.805Z,9.50
2022-09-09T23:25:18.920Z,16.83
2022-09-09T23:27:45.726Z,15.50
2022-09-09T23:30:13.335Z,12.25
2022-09-09T23:32:40.163Z,24.02
2022-09-09T23:35:07.555Z,17.35
2022-09-09T23:37:34.729Z,14.32
2022-09-09T23:40:01.849Z,14.40
2022-09-09T23:42:33.543Z,14.45
2022-09-09T23:45:00.632Z,19.45
2022-09-09T23:47:28.426Z,14.13
2022-09-09T23:49:55.556Z,16.02
2022-09-09T23:52:26.661Z,27.77
2022-09-09T23:54:53.488Z,20.63
2022-09-09T23:57:22.063Z,11.13
2022-09-09T23:59:49.029Z,20.38
